createdAt,value
2022-09-26T00:01:46.145Z,9.90
2022-09-26T00:04:22.896Z,9.80
2022-09-26T00:06:54.415Z,9.80
2022-09-26T00:09:24.277Z,9.80
2022-09-26T00:11:53.716Z,9.80
2022-09-26T00:14:24.372Z,9.80
2022-09-26T00:16:54.863Z,9.80
2022-09-26T00:19:25.194Z,9.80
2022-09-26T00:21:54.076Z,9.80
2022-09-26T00:24:22.729Z,9.80
2022-09-26T00:26:51.439Z,9.80
2022-09-26T00:29:20.023Z,9.70
2022-09-26T00:31:49.263Z,9.70
2022-09-26T00:34:21.081Z,9.70
2022-09-26T00:36:49.762Z,9.80
2022-09-26T00:39:18.833Z,9.80
2022-09-26T00:41:47.917Z,9.70
2022-09-26T00:44:38.438Z,9.70
2022-09-26T00:47:14.653Z,9.80
2022-09-26T00:49:46.584Z,9.80
2022-09-26T00:52:19.006Z,9.80
2022-09-26T00:54:51.566Z,9.90
2022-09-26T00:57:25.900Z,9.90
2022-09-26T00:59:57.709Z,9.90
2022-09-26T01:02:28.885Z,10.00
2022-09-26T01:05:00.797Z,10.00
2022-09-26T01:07:31.129Z,10.00
2022-09-26T01:10:00.458Z,10.10
2022-09-26T01:12:29.546Z,10.20
2022-09-26T01:14:59.658Z,10.20
2022-09-26T01:17:28.976Z,10.20
2022-09-26T01:20:09.226Z,10.20
2022-09-26T01:23:11.239Z,10.30
2022-09-26T01:26:04.826Z,10.30
2022-09-26T01:28:53.292Z,10.30
2022-09-26T01:31:30.103Z,10.40
2022-09-26T01:34:08.403Z,10.40
2022-09-26T01:37:03.585Z,10.40
2022-09-26T01:39:44.976Z,10.40
2022-09-26T01:42:24.754Z,10.50
2022-09-26T01:45:01.660Z,10.50
2022-09-26T01:47:37.295Z,10.50
2022-09-26T01:50:13.787Z,10.50
2022-09-26T01:52:46.906Z,10.60
2022-09-26T01:55:20.904Z,10.60
2022-09-26T01:57:54.783Z,10.60
2022-09-26T02:00:23.533Z,10.60
2022-09-26T02:02:55.406Z,10.60
2022-09-26T02:05:32.763Z,10.60
2022-09-26T02:08:06.751Z,10.60
2022-09-26T02:10:39.299Z,10.60
2022-09-26T02:13:14.891Z,10.60
2022-09-26T02:15:48.734Z,10.70
2022-09-26T02:18:23.190Z,10.60
2022-09-26T02:20:58.058Z,10.70
2022-09-26T02:23:26.592Z,10.70
2022-09-26T02:25:55.319Z,10.70
2022-09-26T02:28:23.952Z,10.70
2022-09-26T02:30:55.469Z,10.80
2022-09-26T02:33:26.301Z,10.80
2022-09-26T02:35:58.195Z,10.70
2022-09-26T02:38:29.314Z,10.70
2022-09-26T02:41:07.094Z,10.70
2022-09-26T02:43:45.980Z,10.70
2022-09-26T02:46:39.931Z,10.70
2022-09-26T02:49:35.887Z,10.70
2022-09-26T02:52:23.127Z,10.70
2022-09-26T02:55:04.717Z,10.70
2022-09-26T02:57:43.292Z,10.70
2022-09-26T03:00:18.086Z,10.70
2022-09-26T03:02:52.588Z,10.70
2022-09-26T03:05:24.995Z,10.70
2022-09-26T03:07:58.948Z,10.70
2022-09-26T03:10:30.527Z,10.70
2022-09-26T03:13:04.275Z,10.70
2022-09-26T03:15:34.555Z,10.70
2022-09-26T03:18:07.544Z,10.70
2022-09-26T03:20:37.489Z,10.70
2022-09-26T03:23:06.634Z,10.70
2022-09-26T03:25:35.611Z,10.70
2022-09-26T03:28:04.386Z,10.70
2022-09-26T03:30:33.289Z,10.70
2022-09-26T03:33:03.362Z,10.70
2022-09-26T03:35:34.395Z,10.70
2022-09-26T03:38:04.502Z,10.80
2022-09-26T03:40:33.522Z,10.80
2022-09-26T03:43:02.118Z,10.80
2022-09-26T03:45:30.762Z,10.80
2022-09-26T03:48:00.216Z,10.80
2022-09-26T03:50:28.699Z,10.80
2022-09-26T03:52:57.283Z,10.80
2022-09-26T03:55:27.353Z,10.80
2022-09-26T03:57:56.266Z,10.80
2022-09-26T04:00:25.079Z,10.90
2022-09-26T04:02:53.687Z,10.90
2022-09-26T04:05:22.563Z,10.90
2022-09-26T04:07:51.135Z,10.90
2022-09-26T04:10:19.908Z,10.90
2022-09-26T04:12:49.868Z,11.00
2022-09-26T04:15:18.579Z,11.00
2022-09-26T04:17:48.766Z,11.00
2022-09-26T04:20:17.764Z,11.00
2022-09-26T04:22:46.411Z,11.00
2022-09-26T04:25:15.134Z,11.00
2022-09-26T04:27:43.740Z,11.00
2022-09-26T04:30:14.847Z,11.00
2022-09-26T04:32:43.439Z,11.00
2022-09-26T04:35:12.283Z,11.00
2022-09-26T04:37:41.381Z,11.00
2022-09-26T04:40:11.868Z,11.00
2022-09-26T04:42:41.696Z,11.00
2022-09-26T04:45:11.368Z,11.00
2022-09-26T04:47:41.468Z,11.00
2022-09-26T04:50:10.692Z,11.10
2022-09-26T04:52:39.847Z,11.10
2022-09-26T04:55:09.192Z,11.10
2022-09-26T04:57:38.195Z,11.10
2022-09-26T05:00:07.927Z,11.10
2022-09-26T05:02:36.580Z,11.10
2022-09-26T05:05:08.871Z,11.10
2022-09-26T05:07:41.576Z,11.10
2022-09-26T05:10:12.351Z,11.10
2022-09-26T05:12:40.987Z,11.00
2022-09-26T05:15:11.510Z,11.00
2022-09-26T05:17:40.175Z,11.10
2022-09-26T05:20:11.318Z,11.10
2022-09-26T05:22:39.920Z,11.10
2022-09-26T05:25:27.213Z,11.10
2022-09-26T05:27:55.848Z,11.10
2022-09-26T05:30:26.033Z,11.10
2022-09-26T05:32:54.732Z,11.10
2022-09-26T05:35:25.246Z,11.10
2022-09-26T05:38:03.064Z,11.10
2022-09-26T05:40:50.743Z,11.10
2022-09-26T05:43:19.369Z,11.10
2022-09-26T05:45:51.058Z,11.10
2022-09-26T05:48:21.332Z,11.10
2022-09-26T05:50:51.562Z,11.10
2022-09-26T05:53:20.299Z,11.10
2022-09-26T05:55:51.455Z,11.10
2022-09-26T05:58:20.255Z,11.10
2022-09-26T06:00:49.709Z,11.10
2022-09-26T06:03:18.745Z,11.20
2022-09-26T06:05:47.309Z,11.20
2022-09-26T06:08:17.542Z,11.20
2022-09-26T06:10:46.098Z,11.20
2022-09-26T06:13:15.533Z,11.20
2022-09-26T06:15:44.548Z,11.30
2022-09-26T06:18:13.670Z,11.30
2022-09-26T06:20:42.265Z,11.40
2022-09-26T06:23:10.948Z,11.50
2022-09-26T06:25:41.169Z,11.50
2022-09-26T06:28:10.186Z,11.50
2022-09-26T06:30:38.987Z,11.50
2022-09-26T06:33:07.596Z,11.60
2022-09-26T06:35:36.297Z,11.60
2022-09-26T06:38:06.009Z,11.60
2022-09-26T06:40:34.996Z,11.70
2022-09-26T06:43:05.581Z,11.70
2022-09-26T06:45:34.958Z,11.80
2022-09-26T06:48:04.234Z,11.70
2022-09-26T06:50:32.978Z,11.80
2022-09-26T06:53:08.882Z,11.80
2022-09-26T06:55:38.039Z,11.80
2022-09-26T06:58:08.283Z,11.80
2022-09-26T07:00:37.349Z,11.80
2022-09-26T07:03:06.503Z,11.80
2022-09-26T07:05:35.527Z,11.90
2022-09-26T07:08:04.254Z,11.80
2022-09-26T07:10:36.418Z,11.90
2022-09-26T07:13:09.754Z,11.90
2022-09-26T07:15:40.455Z,11.90
2022-09-26T07:18:10.164Z,11.90
2022-09-26T07:20:41.980Z,11.90
2022-09-26T07:23:12.669Z,11.90
2022-09-26T07:25:41.770Z,11.90
2022-09-26T07:28:12.958Z,11.90
2022-09-26T07:30:41.925Z,11.90
2022-09-26T07:33:10.917Z,11.90
2022-09-26T07:35:44.639Z,11.90
2022-09-26T07:38:13.414Z,11.90
2022-09-26T07:40:43.577Z,11.90
2022-09-26T07:43:35.677Z,11.90
2022-09-26T07:46:20.070Z,11.90
2022-09-26T07:49:06.306Z,12.00
2022-09-26T07:51:34.994Z,11.90
2022-09-26T07:54:03.689Z,12.00
2022-09-26T07:56:34.712Z,12.10
2022-09-26T07:59:05.456Z,12.10
2022-09-26T08:01:36.070Z,12.10
2022-09-26T08:04:06.572Z,12.20
2022-09-26T08:06:37.030Z,12.20
2022-09-26T08:09:06.257Z,12.30
2022-09-26T08:11:35.536Z,12.30
2022-09-26T08:14:05.980Z,12.30
2022-09-26T08:16:34.741Z,12.30
2022-09-26T08:19:03.928Z,12.30
2022-09-26T08:21:32.835Z,12.30
2022-09-26T08:24:02.165Z,12.30
2022-09-26T08:26:31.104Z,12.30
2022-09-26T08:29:00.536Z,12.20
2022-09-26T08:31:31.644Z,12.20
2022-09-26T08:34:00.556Z,12.20
2022-09-26T08:36:29.372Z,12.20
2022-09-26T08:38:58.548Z,12.30
2022-09-26T08:41:46.522Z,12.20
2022-09-26T08:44:33.702Z,12.20
2022-09-26T08:47:07.101Z,12.20
2022-09-26T08:50:02.836Z,12.10
2022-09-26T08:52:38.470Z,12.00
2022-09-26T08:55:13.504Z,11.90
2022-09-26T08:57:49.014Z,11.90
2022-09-26T09:00:20.733Z,11.80
2022-09-26T09:03:05.832Z,11.80
2022-09-26T09:05:39.346Z,11.60
2022-09-26T09:08:14.464Z,11.40
2022-09-26T09:10:48.861Z,11.30
2022-09-26T09:13:34.050Z,11.20
2022-09-26T09:16:18.375Z,11.10
2022-09-26T09:19:00.309Z,11.00
2022-09-26T09:21:42.072Z,11.00
2022-09-26T09:24:24.005Z,11.00
2022-09-26T09:30:19.287Z,10.90
2022-09-26T09:32:54.953Z,10.90
2022-09-26T09:35:34.916Z,10.80
2022-09-26T09:38:04.975Z,10.80
2022-09-26T09:40:38.524Z,10.90
2022-09-26T09:43:13.475Z,11.00
2022-09-26T09:45:47.883Z,11.10
2022-09-26T09:48:17.608Z,11.20
2022-09-26T09:50:56.256Z,11.30
2022-09-26T09:53:45.321Z,11.30
2022-09-26T09:56:20.514Z,11.30
2022-09-26T09:59:03.802Z,11.30
2022-09-26T10:01:38.793Z,11.30
2022-09-26T10:04:22.153Z,11.30
2022-09-26T10:06:53.172Z,11.40
2022-09-26T10:09:35.319Z,11.40
2022-09-26T10:12:17.235Z,11.50
2022-09-26T10:14:51.175Z,11.50
2022-09-26T10:17:24.307Z,11.50
2022-09-26T10:19:53.573Z,11.50
2022-09-26T10:22:32.785Z,11.40
2022-09-26T10:25:08.732Z,11.40
2022-09-26T10:27:40.206Z,11.40
2022-09-26T10:30:26.237Z,11.40
2022-09-26T10:32:57.602Z,11.40
2022-09-26T10:35:43.052Z,11.30
2022-09-26T10:38:23.365Z,11.40
2022-09-26T10:40:55.407Z,11.40
2022-09-26T10:43:30.907Z,11.30
2022-09-26T10:46:09.627Z,11.30
2022-09-26T10:48:48.254Z,11.30
2022-09-26T10:51:26.178Z,11.40
2022-09-26T10:54:01.981Z,11.40
2022-09-26T10:56:34.055Z,11.40
2022-09-26T10:59:10.837Z,11.50
2022-09-26T11:01:43.533Z,11.60
2022-09-26T11:04:36.361Z,11.80
2022-09-26T11:07:07.229Z,11.90
2022-09-26T11:09:38.575Z,11.90
2022-09-26T11:12:26.765Z,11.90
2022-09-26T11:14:58.448Z,12.00
2022-09-26T11:17:45.698Z,12.20
2022-09-26T11:20:22.378Z,12.30
2022-09-26T11:23:04.183Z,12.50
2022-09-26T11:25:44.489Z,12.50
2022-09-26T11:28:19.969Z,12.50
2022-09-26T11:30:52.986Z,12.60
2022-09-26T11:33:23.442Z,12.60
2022-09-26T11:36:03.634Z,12.60
2022-09-26T11:38:41.253Z,12.60
2022-09-26T11:41:39.735Z,12.70
2022-09-26T11:44:34.713Z,12.80
2022-09-26T11:47:27.667Z,12.80
2022-09-26T11:50:18.062Z,12.90
2022-09-26T11:53:00.263Z,13.00
2022-09-26T11:55:37.925Z,13.10
2022-09-26T11:58:17.761Z,13.20
2022-09-26T12:00:56.199Z,13.30
2022-09-26T12:03:54.145Z,13.30
2022-09-26T12:06:33.706Z,13.30
2022-09-26T12:09:23.428Z,13.30
2022-09-26T12:12:09.913Z,13.20
2022-09-26T12:14:52.979Z,13.20
2022-09-26T12:17:36.603Z,13.30
2022-09-26T12:20:22.890Z,13.30
2022-09-26T12:23:00.232Z,13.20
2022-09-26T12:25:42.036Z,13.00
2022-09-26T12:28:27.214Z,13.00
2022-09-26T12:31:09.230Z,12.90
2022-09-26T12:34:01.402Z,12.90
2022-09-26T12:36:49.270Z,12.80
2022-09-26T12:39:41.264Z,12.80
2022-09-26T12:42:25.934Z,12.70
2022-09-26T12:45:07.726Z,12.70
2022-09-26T12:48:06.803Z,12.70
2022-09-26T12:50:45.175Z,12.70
2022-09-26T12:53:40.902Z,12.70
2022-09-26T12:56:11.572Z,12.80
2022-09-26T12:59:07.971Z,12.90
2022-09-26T13:02:00.831Z,13.00
2022-09-26T13:05:01.403Z,13.20
2022-09-26T13:07:42.997Z,13.30
2022-09-26T13:10:25.775Z,13.30
2022-09-26T13:13:12.644Z,13.30
2022-09-26T13:15:50.708Z,13.20
2022-09-26T13:18:27.286Z,13.20
2022-09-26T13:21:03.743Z,13.10
2022-09-26T13:23:39.432Z,13.10
2022-09-26T13:26:15.991Z,13.00
2022-09-26T13:29:12.836Z,13.00
2022-09-26T13:31:42.181Z,13.00
2022-09-26T13:34:18.471Z,13.00
2022-09-26T13:36:50.315Z,13.00
2022-09-26T13:39:28.593Z,12.90
2022-09-26T13:42:04.376Z,12.90
2022-09-26T13:44:53.560Z,12.80
2022-09-26T13:47:32.606Z,12.70
2022-09-26T13:50:08.795Z,12.70
2022-09-26T13:52:53.826Z,12.80
2022-09-26T13:55:26.744Z,12.80
2022-09-26T13:58:08.818Z,12.80
2022-09-26T14:00:55.081Z,12.70
2022-09-26T14:03:43.663Z,12.70
2022-09-26T14:06:32.665Z,12.60
2022-09-26T14:09:40.030Z,12.70
2022-09-26T14:12:33.839Z,12.70
2022-09-26T14:15:19.076Z,12.60
2022-09-26T14:18:16.024Z,12.40
2022-09-26T14:21:18.330Z,12.30
2022-09-26T14:23:49.400Z,12.30
2022-09-26T14:26:24.468Z,12.20
2022-09-26T14:28:56.091Z,12.20
2022-09-26T14:32:01.700Z,12.20
2022-09-26T14:34:35.667Z,12.20
2022-09-26T14:37:20.771Z,12.10
2022-09-26T14:39:54.706Z,12.10
2022-09-26T14:42:29.151Z,12.10
2022-09-26T14:45:03.346Z,12.00
2022-09-26T14:47:41.242Z,12.00
2022-09-26T14:50:19.506Z,12.00
2022-09-26T14:53:02.405Z,11.90
2022-09-26T14:55:33.631Z,11.90
2022-09-26T14:58:31.121Z,11.90
2022-09-26T15:01:05.423Z,11.80
2022-09-26T15:03:36.285Z,11.90
2022-09-26T15:06:09.256Z,11.80
2022-09-26T15:08:39.818Z,11.80
2022-09-26T15:11:27.060Z,11.80
2022-09-26T15:13:58.283Z,11.80
2022-09-26T15:16:37.785Z,11.80
2022-09-26T15:19:13.399Z,11.70
2022-09-26T15:21:45.995Z,11.70
2022-09-26T15:24:27.009Z,11.70
2022-09-26T15:27:02.720Z,11.70
2022-09-26T15:29:33.750Z,11.60
2022-09-26T15:32:04.143Z,11.60
2022-09-26T15:34:37.019Z,11.60
2022-09-26T15:37:17.487Z,11.60
2022-09-26T15:39:47.871Z,11.60
2022-09-26T15:42:46.107Z,11.60
2022-09-26T15:45:28.024Z,11.60
2022-09-26T15:47:58.450Z,11.50
2022-09-26T15:50:36.383Z,11.50
2022-09-26T15:53:13.941Z,11.50
2022-09-26T15:55:50.539Z,11.50
2022-09-26T15:58:24.704Z,11.50
2022-09-26T16:00:56.549Z,11.50
2022-09-26T16:03:45.581Z,11.50
2022-09-26T16:06:25.733Z,11.50
2022-09-26T16:08:58.878Z,11.50
2022-09-26T16:11:28.432Z,11.40
2022-09-26T16:13:58.392Z,11.40
2022-09-26T16:16:33.906Z,11.40
2022-09-26T16:19:05.738Z,11.40
2022-09-26T16:21:37.997Z,11.30
2022-09-26T16:24:34.544Z,11.30
2022-09-26T16:27:04.244Z,11.40
2022-09-26T16:29:36.000Z,11.30
2022-09-26T16:32:07.424Z,11.30
2022-09-26T16:34:39.155Z,11.20
2022-09-26T16:37:20.185Z,11.20
2022-09-26T16:40:01.272Z,11.20
2022-09-26T16:42:34.834Z,11.20
2022-09-26T16:45:07.671Z,11.20
2022-09-26T16:47:44.467Z,11.20
2022-09-26T16:50:27.652Z,11.20
2022-09-26T16:52:57.082Z,11.20
2022-09-26T16:55:27.969Z,11.20
2022-09-26T16:57:59.582Z,11.20
2022-09-26T17:00:52.170Z,11.30
2022-09-26T17:03:28.875Z,11.20
2022-09-26T17:06:02.209Z,11.20
2022-09-26T17:08:31.716Z,11.20
2022-09-26T17:11:03.264Z,11.20
2022-09-26T17:13:36.401Z,11.20
2022-09-26T17:16:07.606Z,11.20
2022-09-26T17:18:40.187Z,11.20
2022-09-26T17:21:12.087Z,11.20
2022-09-26T17:23:42.431Z,11.20
2022-09-26T17:26:20.615Z,11.20
2022-09-26T17:28:50.652Z,11.20
2022-09-26T17:31:21.399Z,11.10
2022-09-26T17:33:56.994Z,11.10
2022-09-26T17:36:29.789Z,11.10
2022-09-26T17:39:01.446Z,11.10
2022-09-26T17:41:32.964Z,11.10
2022-09-26T17:44:02.559Z,11.10
2022-09-26T17:46:32.097Z,11.10
2022-09-26T17:49:05.831Z,11.10
2022-09-26T17:51:36.470Z,11.10
2022-09-26T17:54:07.906Z,11.10
2022-09-26T17:56:38.682Z,11.10
2022-09-26T17:59:24.533Z,11.10
2022-09-26T18:01:57.146Z,11.10
2022-09-26T18:04:29.535Z,11.10
2022-09-26T18:07:04.721Z,11.20
2022-09-26T18:09:36.997Z,11.20
2022-09-26T18:12:09.216Z,11.20
2022-09-26T18:14:42.690Z,11.10
2022-09-26T18:17:16.408Z,11.10
2022-09-26T18:19:49.687Z,11.10
2022-09-26T18:22:21.002Z,11.10
2022-09-26T18:24:52.919Z,11.10
2022-09-26T18:27:22.508Z,11.10
2022-09-26T18:29:52.192Z,11.10
2022-09-26T18:32:26.306Z,11.10
2022-09-26T18:35:04.250Z,11.10
2022-09-26T18:37:35.940Z,11.10
2022-09-26T18:40:05.554Z,11.10
2022-09-26T18:42:38.416Z,11.20
2022-09-26T18:45:09.916Z,11.10
2022-09-26T18:47:44.464Z,11.10
2022-09-26T18:50:26.856Z,11.00
2022-09-26T18:52:56.630Z,11.00
2022-09-26T18:55:45.066Z,11.00
2022-09-26T18:58:28.160Z,11.00
2022-09-26T19:01:03.233Z,11.10
2022-09-26T19:03:34.864Z,11.10
2022-09-26T19:06:08.610Z,11.10
2022-09-26T19:08:41.850Z,11.10
2022-09-26T19:11:18.251Z,11.10
2022-09-26T19:13:49.656Z,11.10
2022-09-26T19:16:22.737Z,11.10
2022-09-26T19:18:52.644Z,11.10
2022-09-26T19:21:31.441Z,11.20
2022-09-26T19:24:08.565Z,11.20
2022-09-26T19:26:44.887Z,11.20
2022-09-26T19:29:17.728Z,11.10
2022-09-26T19:31:49.498Z,11.10
2022-09-26T19:34:21.037Z,11.10
2022-09-26T19:36:52.903Z,11.10
2022-09-26T19:39:23.391Z,11.10
2022-09-26T19:41:53.213Z,11.10
2022-09-26T19:44:24.829Z,11.10
2022-09-26T19:46:54.251Z,11.10
2022-09-26T19:49:26.558Z,11.10
2022-09-26T19:51:57.677Z,11.10
2022-09-26T19:54:27.391Z,11.10
2022-09-26T19:56:56.741Z,11.10
2022-09-26T19:59:27.658Z,11.10
2022-09-26T20:01:57.257Z,11.10
2022-09-26T20:04:42.793Z,11.10
2022-09-26T20:07:18.776Z,11.10
2022-09-26T20:09:48.393Z,11.10
2022-09-26T20:12:17.920Z,11.10
2022-09-26T20:14:47.336Z,11.10
2022-09-26T20:17:21.438Z,11.10
2022-09-26T21:06:38.370Z,11.10
2022-09-26T21:09:07.293Z,11.10
2022-09-26T21:11:36.065Z,11.10
2022-09-26T21:14:05.281Z,11.10
2022-09-26T21:16:34.163Z,11.10
2022-09-26T21:22:56.304Z,11.20
2022-09-26T21:25:27.617Z,11.20
2022-09-26T21:27:58.982Z,11.20
2022-09-26T21:30:28.169Z,11.10
2022-09-26T21:32:58.475Z,11.20
2022-09-26T21:35:30.484Z,11.20
2022-09-26T21:38:02.665Z,11.20
2022-09-26T21:40:34.200Z,11.20
2022-09-26T21:43:06.671Z,11.20
2022-09-26T21:45:35.849Z,11.20
2022-09-26T21:48:04.748Z,11.20
2022-09-26T21:50:33.509Z,11.20
2022-09-26T21:53:06.707Z,11.20
2022-09-26T21:55:38.854Z,11.20
2022-09-26T21:58:14.271Z,11.20
2022-09-26T22:00:42.956Z,11.30
2022-09-26T22:03:11.661Z,11.20
2022-09-26T22:05:40.708Z,11.20
2022-09-26T22:08:11.373Z,11.20
2022-09-26T22:10:40.221Z,11.30
2022-09-26T22:13:09.285Z,11.20
2022-09-26T22:15:38.042Z,11.20
2022-09-26T22:18:06.958Z,11.20
2022-09-26T22:20:35.898Z,11.20
2022-09-26T22:23:04.855Z,11.20
2022-09-26T22:25:39.632Z,11.20
2022-09-26T22:28:10.904Z,11.20
2022-09-26T22:30:41.323Z,11.20
2022-09-26T22:33:10.180Z,11.20
2022-09-26T22:35:38.840Z,11.20
2022-09-26T22:38:07.680Z,11.20
2022-09-26T22:40:38.398Z,11.20
2022-09-26T22:43:07.212Z,11.20
2022-09-26T22:45:36.240Z,11.10
2022-09-26T22:48:05.537Z,11.00
2022-09-26T22:50:34.343Z,11.00
2022-09-26T22:53:03.074Z,11.00
2022-09-26T22:55:31.780Z,11.00
2022-09-26T22:58:02.121Z,10.90
2022-09-26T23:00:30.850Z,10.90
2022-09-26T23:02:59.476Z,10.90
2022-09-26T23:05:28.389Z,10.90
2022-09-26T23:07:57.006Z,10.70
2022-09-26T23:10:25.708Z,10.80
2022-09-26T23:12:55.120Z,10.70
2022-09-26T23:15:25.198Z,10.60
2022-09-26T23:17:53.812Z,10.60
2022-09-26T23:20:22.479Z,10.60
2022-09-26T23:22:51.170Z,10.50
2022-09-26T23:25:19.929Z,10.50
2022-09-26T23:27:48.510Z,10.50
2022-09-26T23:30:17.585Z,10.50
2022-09-26T23:32:47.828Z,10.50
2022-09-26T23:35:17.022Z,10.50
2022-09-26T23:37:47.297Z,10.40
2022-09-26T23:40:16.061Z,10.50
2022-09-26T23:42:44.983Z,10.50
2022-09-26T23:45:14.263Z,10.50
2022-09-26T23:47:42.921Z,10.50
2022-09-26T23:50:13.281Z,10.50
2022-09-26T23:52:42.294Z,10.50
2022-09-26T23:55:11.831Z,10.40
2022-09-26T23:57:40.561Z,10.40
